createdAt,value
2018-11-27T00:02:03.328Z,75.09
2018-11-27T00:07:05.470Z,74.77
2018-11-27T00:12:07.632Z,74.20
2018-11-27T00:17:09.712Z,73.69
2018-11-27T00:22:11.833Z,74.17
2018-11-27T00:27:13.940Z,73.96
2018-11-27T00:32:16.070Z,73.06
2018-11-27T00:37:18.200Z,72.79
2018-11-27T00:42:20.308Z,73.17
2018-11-27T00:47:22.451Z,73.50
2018-11-27T00:52:24.573Z,73.19
2018-11-27T00:57:26.708Z,72.41
2018-11-27T01:02:28.902Z,72.52
2018-11-27T01:07:31.003Z,72.08
2018-11-27T01:12:33.168Z,71.19
2018-11-27T01:17:35.263Z,70.88
2018-11-27T01:22:37.379Z,70.43
2018-11-27T01:27:39.485Z,70.70
2018-11-27T01:32:41.701Z,71.23
2018-11-27T01:37:44.154Z,70.85
2018-11-27T01:42:47.384Z,69.21
2018-11-27T01:47:49.808Z,70.30
2018-11-27T01:52:51.951Z,70.33
2018-11-27T01:57:54.049Z,70.78
2018-11-27T02:02:56.898Z,71.29
2018-11-27T02:07:59.005Z,71.22
2018-11-27T02:13:01.516Z,71.36
2018-11-27T02:18:03.276Z,71.53
2018-11-27T02:23:05.598Z,71.17
2018-11-27T02:28:07.713Z,71.37
2018-11-27T02:33:09.828Z,71.55
2018-11-27T02:38:11.927Z,71.97
2018-11-27T02:43:14.066Z,71.78
2018-11-27T02:48:16.209Z,71.72
2018-11-27T02:53:18.294Z,71.04
2018-11-27T02:58:20.408Z,71.68
2018-11-27T03:03:22.522Z,71.79
2018-11-27T03:08:24.651Z,71.73
2018-11-27T03:13:26.796Z,71.98
2018-11-27T03:18:28.880Z,72.12
2018-11-27T03:23:30.981Z,71.39
2018-11-27T03:28:33.088Z,71.68
2018-11-27T03:33:35.219Z,71.92
2018-11-27T03:38:37.326Z,72.11
2018-11-27T03:43:39.423Z,72.35
2018-11-27T03:48:41.526Z,72.25
2018-11-27T03:53:43.612Z,71.37
2018-11-27T03:58:45.703Z,71.34
2018-11-27T04:03:47.784Z,71.56
2018-11-27T04:08:49.895Z,71.69
2018-11-27T04:13:52.036Z,72.31
2018-11-27T04:18:54.145Z,71.54
2018-11-27T04:23:56.421Z,71.37
2018-11-27T04:29:05.430Z,71.05
2018-11-27T04:34:07.537Z,71.08
2018-11-27T04:39:09.648Z,70.66
2018-11-27T04:44:11.749Z,70.42
2018-11-27T04:49:13.828Z,70.66
2018-11-27T04:54:15.939Z,70.51
2018-11-27T04:59:18.032Z,70.30
2018-11-27T05:04:20.230Z,70.26
2018-11-27T05:09:22.330Z,70.72
2018-11-27T05:14:24.450Z,70.34
2018-11-27T05:19:26.594Z,70.48
2018-11-27T05:24:28.726Z,70.27
2018-11-27T05:29:30.809Z,69.96
2018-11-27T05:34:32.942Z,69.79
2018-11-27T05:39:35.058Z,69.82
2018-11-27T05:44:37.170Z,69.68
2018-11-27T05:49:39.280Z,69.67
2018-11-27T05:54:41.388Z,71.19
2018-11-27T05:59:43.534Z,69.92
2018-11-27T06:04:45.653Z,69.27
2018-11-27T06:09:47.764Z,69.93
2018-11-27T06:14:49.917Z,69.63
2018-11-27T06:19:52.034Z,69.67
2018-11-27T06:24:54.132Z,69.46
2018-11-27T06:29:56.218Z,69.10
2018-11-27T06:34:58.337Z,69.17
2018-11-27T06:40:00.533Z,69.29
2018-11-27T06:45:02.646Z,69.78
2018-11-27T06:50:05.850Z,69.26
2018-11-27T06:55:09.604Z,69.54
2018-11-27T07:00:14.029Z,69.81
2018-11-27T07:05:16.138Z,69.76
2018-11-27T07:10:25.464Z,69.71
2018-11-27T07:15:27.647Z,69.95
2018-11-27T07:20:29.724Z,70.16
2018-11-27T07:25:31.816Z,71.73
2018-11-27T07:30:34.083Z,70.72
2018-11-27T07:35:36.264Z,70.49
2018-11-27T07:40:38.391Z,70.98
2018-11-27T07:45:40.568Z,71.06
2018-11-27T07:50:42.647Z,71.05
2018-11-27T07:55:44.798Z,71.03
2018-11-27T08:00:46.939Z,71.07
2018-11-27T08:05:49.033Z,70.84
2018-11-27T08:10:51.463Z,70.58
2018-11-27T08:15:53.600Z,75.43
2018-11-27T08:20:55.720Z,73.48
2018-11-27T08:25:57.837Z,72.54
2018-11-27T08:30:59.949Z,71.62
2018-11-27T08:36:02.049Z,70.90
2018-11-27T08:41:04.189Z,70.59
2018-11-27T08:46:06.335Z,70.25
2018-11-27T08:51:08.441Z,70.28
2018-11-27T08:56:10.622Z,70.70
2018-11-27T09:01:12.766Z,71.72
2018-11-27T09:06:14.914Z,71.69
2018-11-27T09:11:17.085Z,72.23
2018-11-27T09:16:19.271Z,70.43
2018-11-27T09:21:21.408Z,71.79
2018-11-27T09:26:23.561Z,72.54
2018-11-27T09:31:25.709Z,74.70
2018-11-27T09:36:27.826Z,72.08
2018-11-27T09:41:29.942Z,70.89
2018-11-27T09:46:32.056Z,69.54
2018-11-27T09:51:34.148Z,73.63
2018-11-27T09:56:36.283Z,72.50
2018-11-27T10:01:38.424Z,72.65
2018-11-27T10:06:40.544Z,73.07
2018-11-27T10:11:42.703Z,70.46
2018-11-27T10:16:44.886Z,70.04
2018-11-27T10:21:46.985Z,70.79
2018-11-27T10:26:49.092Z,71.51
2018-11-27T10:31:51.241Z,68.05
2018-11-27T10:36:53.406Z,67.73
2018-11-27T10:41:55.542Z,66.92
2018-11-27T10:46:57.674Z,65.58
2018-11-27T10:51:59.804Z,65.07
2018-11-27T10:57:01.903Z,65.39
2018-11-27T11:02:09.905Z,66.35
2018-11-27T11:07:12.048Z,65.33
2018-11-27T11:12:14.182Z,65.04
2018-11-27T11:17:16.334Z,64.50
2018-11-27T11:22:18.429Z,65.31
2018-11-27T11:27:20.543Z,64.75
2018-11-27T11:32:22.650Z,63.50
2018-11-27T11:37:24.774Z,63.30
2018-11-27T11:42:26.970Z,63.14
2018-11-27T11:47:29.098Z,62.68
2018-11-27T11:52:31.909Z,61.19
2018-11-27T11:57:33.385Z,59.90
2018-11-27T12:02:35.499Z,60.76
2018-11-27T12:07:37.649Z,58.07
2018-11-27T12:12:40.300Z,57.50
2018-11-27T12:17:43.107Z,57.74
2018-11-27T12:22:46.618Z,57.66
2018-11-27T12:27:48.826Z,58.35
2018-11-27T12:32:51.072Z,57.75
2018-11-27T12:37:53.217Z,57.40
2018-11-27T12:42:55.916Z,56.47
2018-11-27T12:47:59.165Z,55.75
2018-11-27T12:53:01.318Z,55.79
2018-11-27T12:58:03.869Z,56.00
2018-11-27T13:03:06.210Z,57.99
2018-11-27T13:08:10.997Z,59.30
2018-11-27T13:13:13.165Z,59.22
2018-11-27T13:18:15.361Z,60.33
2018-11-27T13:23:17.491Z,60.36
2018-11-27T13:28:19.685Z,59.34
2018-11-27T13:33:30.433Z,64.08
2018-11-27T13:38:32.591Z,66.55
2018-11-27T13:43:34.878Z,69.41
2018-11-27T13:48:37.017Z,70.64
2018-11-27T13:53:39.141Z,71.25
2018-11-27T13:58:41.302Z,71.94
2018-11-27T14:03:43.442Z,70.69
2018-11-27T14:08:45.580Z,70.68
2018-11-27T14:13:47.701Z,69.70
2018-11-27T14:18:49.886Z,69.16
2018-11-27T14:23:52.027Z,70.19
2018-11-27T14:28:54.179Z,68.85
2018-11-27T14:33:56.319Z,69.28
2018-11-27T14:38:58.433Z,68.77
2018-11-27T14:44:00.550Z,69.64
2018-11-27T14:49:02.697Z,70.06
2018-11-27T14:54:05.710Z,71.18
2018-11-27T14:59:07.819Z,71.03
2018-11-27T15:04:09.998Z,71.25
2018-11-27T15:09:12.166Z,69.51
2018-11-27T15:14:14.305Z,69.19
2018-11-27T15:19:16.497Z,68.81
2018-11-27T15:24:18.626Z,67.94
2018-11-27T15:29:20.745Z,67.83
2018-11-27T15:34:22.899Z,67.07
2018-11-27T15:39:25.055Z,67.51
2018-11-27T15:44:27.204Z,67.95
2018-11-27T15:49:29.341Z,66.84
2018-11-27T15:59:47.901Z,66.40
2018-11-27T16:04:50.097Z,66.35
2018-11-27T16:09:52.269Z,66.46
2018-11-27T16:14:54.406Z,63.07
2018-11-27T16:19:56.589Z,62.63
2018-11-27T16:24:58.730Z,64.07
2018-11-27T16:30:00.885Z,63.92
2018-11-27T16:35:03.060Z,65.21
2018-11-27T16:40:18.556Z,65.31
2018-11-27T16:45:21.725Z,65.65
2018-11-27T16:50:23.923Z,66.19
2018-11-27T16:55:26.065Z,66.50
2018-11-27T17:00:31.180Z,62.21
2018-11-27T17:05:35.120Z,60.53
2018-11-27T17:10:38.624Z,60.01
2018-11-27T17:15:40.770Z,59.24
2018-11-27T17:20:44.078Z,58.87
2018-11-27T17:25:46.248Z,59.23
2018-11-27T17:31:19.272Z,58.37
2018-11-27T17:36:21.444Z,57.53
2018-11-27T17:41:23.660Z,58.55
2018-11-27T17:46:25.806Z,58.50
2018-11-27T17:51:28.028Z,59.20
2018-11-27T17:56:30.213Z,59.26
2018-11-27T18:01:32.411Z,60.34
2018-11-27T18:06:34.571Z,60.73
2018-11-27T18:11:36.765Z,60.02
2018-11-27T18:16:38.924Z,59.64
2018-11-27T18:21:41.128Z,60.01
2018-11-27T18:26:43.341Z,59.96
2018-11-27T18:31:45.485Z,60.09
2018-11-27T18:36:47.680Z,59.89
2018-11-27T18:41:49.825Z,59.37
2018-11-27T18:46:52.295Z,59.39
2018-11-27T18:51:58.693Z,59.37
2018-11-27T18:57:04.005Z,59.86
2018-11-27T19:02:09.619Z,59.83
2018-11-27T19:07:13.667Z,59.48
2018-11-27T19:12:18.120Z,59.76
2018-11-27T19:17:23.778Z,61.28
2018-11-27T19:22:30.127Z,61.18
2018-11-27T19:27:35.988Z,61.13
2018-11-27T19:32:41.391Z,61.83
2018-11-27T19:37:47.702Z,61.67
2018-11-27T19:42:53.563Z,61.53
2018-11-27T19:47:59.062Z,60.98
2018-11-27T19:53:11.771Z,61.81
2018-11-27T19:58:13.274Z,61.66
2018-11-27T20:03:20.995Z,61.70
2018-11-27T20:08:27.449Z,61.38
2018-11-27T20:13:33.918Z,61.24
2018-11-27T20:18:40.246Z,60.38
2018-11-27T20:23:46.334Z,60.74
2018-11-27T20:28:52.663Z,60.46
2018-11-27T20:33:58.929Z,60.96
2018-11-27T20:39:08.541Z,61.06
2018-11-27T20:44:15.404Z,61.54
2018-11-27T20:49:22.586Z,61.17
2018-11-27T20:54:29.173Z,61.34
2018-11-27T20:59:35.485Z,61.21
2018-11-27T21:04:42.604Z,61.07
2018-11-27T21:09:48.706Z,61.21
2018-11-27T21:14:54.386Z,61.64
2018-11-27T21:20:00.012Z,61.68
2018-11-27T21:25:06.885Z,61.41
2018-11-27T21:30:12.711Z,61.81
2018-11-27T21:35:18.375Z,61.83
2018-11-27T21:40:23.248Z,61.71
2018-11-27T21:45:27.058Z,61.89
2018-11-27T21:50:35.620Z,62.89
2018-11-27T21:55:40.315Z,62.67
2018-11-27T22:00:42.705Z,63.91
2018-11-27T22:05:44.922Z,62.97
2018-11-27T22:10:47.114Z,63.16
2018-11-27T22:15:49.295Z,62.11
2018-11-27T22:20:51.517Z,61.82
2018-11-27T22:25:53.913Z,62.27
2018-11-27T22:30:56.702Z,62.77
2018-11-27T22:35:58.920Z,62.35
2018-11-27T22:41:01.189Z,61.95
2018-11-27T22:46:03.421Z,61.80
2018-11-27T22:51:05.636Z,61.16
2018-11-27T22:56:07.848Z,61.41
2018-11-27T23:01:10.077Z,61.59
2018-11-27T23:06:12.235Z,60.75
2018-11-27T23:11:14.442Z,60.32
2018-11-27T23:16:16.569Z,60.54
2018-11-27T23:21:18.635Z,62.16
2018-11-27T23:26:20.818Z,61.62
2018-11-27T23:31:22.872Z,62.56
2018-11-27T23:36:24.960Z,62.57
2018-11-27T23:41:27.041Z,63.52
2018-11-27T23:46:29.122Z,64.17
2018-11-27T23:51:31.176Z,64.05
2018-11-27T23:56:33.242Z,64.40
